Time;durP1;ratioP1;P1;durP2;ratioP2;P2;SDS_P1;SDS_P2;PMS_P1;PMS_P2;Temp;Humidity;BMP_temperature;BMP_pressure;BME280_temperature;BME280_humidity;BME280_pressure;Samples;Min_cycle;Max_cycle;Signal;HPM_P1;HPM_P2
2023/12/12 00:01:06;;;;;;;8.45;2.35;;;;;;;;;;5075421;28;20096;-27
2023/12/12 00:03:31;;;;;;;8.10;2.10;;;;;;;;;;5076111;28;20078;-27
2023/12/12 00:05:57;;;;;;;7.55;2.20;;;;;;;;;;5075618;28;20753;-32
2023/12/12 00:08:22;;;;;;;8.30;2.45;;;;;;;;;;5075247;28;20025;-27
2023/12/12 00:10:47;;;;;;;6.97;2.13;;;;;;;;;;5075444;28;20107;-27
2023/12/12 00:13:12;;;;;;;6.30;2.37;;;;;;;;;;5075727;28;20332;-27
2023/12/12 00:15:37;;;;;;;5.80;2.40;;;;;;;;;;5075342;28;20259;-27
2023/12/12 00:18:02;;;;;;;7.20;1.93;;;;;;;;;;5075919;28;20016;-27
2023/12/12 00:20:28;;;;;;;8.18;2.33;;;;;;;;;;5075303;28;20247;-27
2023/12/12 00:22:53;;;;;;;8.13;2.23;;;;;;;;;;5075265;28;20024;-27
2023/12/12 00:25:19;;;;;;;7.75;2.40;;;;;;;;;;5075477;28;20721;-27
2023/12/12 00:27:44;;;;;;;8.98;2.42;;;;;;;;;;5075430;28;20023;-27
2023/12/12 00:30:10;;;;;;;11.93;2.50;;;;;;;;;;5075333;28;20020;-27
2023/12/12 00:32:35;;;;;;;10.55;2.45;;;;;;;;;;5075296;28;20330;-26
2023/12/12 00:35:00;;;;;;;10.03;2.77;;;;;;;;;;5075501;28;20014;-27
2023/12/12 00:37:26;;;;;;;10.40;2.90;;;;;;;;;;5074942;28;20625;-27
2023/12/12 00:39:51;;;;;;;10.38;3.05;;;;;;;;;;5074905;28;20367;-27
2023/12/12 00:42:16;;;;;;;7.43;2.50;;;;;;;;;;5074813;28;20046;-27
2023/12/12 00:44:41;;;;;;;12.00;3.13;;;;;;;;;;5074798;28;20024;-26
2023/12/12 00:47:07;;;;;;;12.52;3.67;;;;;;;;;;5075337;28;20046;-27
2023/12/12 00:49:32;;;;;;;11.20;2.80;;;;;;;;;;5074605;28;20111;-27
2023/12/12 00:51:57;;;;;;;10.70;3.20;;;;;;;;;;5074934;28;20017;-27
2023/12/12 00:54:22;;;;;;;11.88;2.63;;;;;;;;;;5074612;28;20021;-27
2023/12/12 00:56:47;;;;;;;9.13;2.53;;;;;;;;;;5075104;28;20021;-27
2023/12/12 00:59:13;;;;;;;13.17;2.80;;;;;;;;;;5074525;28;20742;-27
2023/12/12 01:01:38;;;;;;;12.10;3.35;;;;;;;;;;5074753;28;20290;-28
2023/12/12 01:04:03;;;;;;;11.33;2.80;;;;;;;;;;5074991;28;20016;-27
2023/12/12 01:06:28;;;;;;;9.75;3.20;;;;;;;;;;5074359;28;20263;-27
2023/12/12 01:08:54;;;;;;;13.00;3.00;;;;;;;;;;5074224;28;20024;-27
2023/12/12 01:11:19;;;;;;;14.43;3.40;;;;;;;;;;5074188;28;20258;-27
2023/12/12 01:13:45;;;;;;;10.70;3.60;;;;;;;;;;5074227;28;20279;-27
2023/12/12 01:16:10;;;;;;;9.55;3.72;;;;;;;;;;5074351;28;20040;-27
2023/12/12 01:18:35;;;;;;;12.68;3.80;;;;;;;;;;5073135;28;20074;-26
2023/12/12 01:21:01;;;;;;;12.73;3.33;;;;;;;;;;5073999;28;20024;-27
2023/12/12 01:23:26;;;;;;;11.10;3.40;;;;;;;;;;5074056;28;20376;-27
2023/12/12 01:25:51;;;;;;;10.90;3.43;;;;;;;;;;5073963;28;20460;-27
2023/12/12 01:28:16;;;;;;;11.27;3.70;;;;;;;;;;5073978;28;20358;-27
2023/12/12 01:30:41;;;;;;;12.57;3.37;;;;;;;;;;5073840;28;20860;-27
2023/12/12 01:33:06;;;;;;;13.13;3.30;;;;;;;;;;5072606;28;20294;-27
2023/12/12 01:35:32;;;;;;;10.37;3.63;;;;;;;;;;5073842;28;20247;-27
2023/12/12 01:37:57;;;;;;;11.73;3.80;;;;;;;;;;5073827;28;20263;-27
2023/12/12 01:40:22;;;;;;;6.80;3.00;;;;;;;;;;5074135;28;20345;-27
2023/12/12 01:42:47;;;;;;;16.40;3.53;;;;;;;;;;5074315;28;20100;-27
2023/12/12 01:45:12;;;;;;;7.87;2.83;;;;;;;;;;5072760;28;20622;-27
2023/12/12 01:47:38;;;;;;;14.35;3.28;;;;;;;;;;5073355;28;20274;-27
2023/12/12 01:50:03;;;;;;;9.60;3.00;;;;;;;;;;5073568;28;20456;-27
2023/12/12 01:52:28;;;;;;;16.83;3.92;;;;;;;;;;5073648;28;20020;-26
2023/12/12 01:54:54;;;;;;;12.93;3.35;;;;;;;;;;5073886;28;20349;-26
2023/12/12 01:57:20;;;;;;;8.65;2.95;;;;;;;;;;5072266;28;20089;-27
2023/12/12 01:59:45;;;;;;;8.38;3.08;;;;;;;;;;5074036;28;20020;-27
2023/12/12 02:02:11;;;;;;;11.95;3.90;;;;;;;;;;5073427;28;20052;-27
2023/12/12 02:04:36;;;;;;;8.18;2.85;;;;;;;;;;5073518;28;20017;-27
2023/12/12 02:07:03;;;;;;;7.53;2.70;;;;;;;;;;5073744;28;20048;-27
2023/12/12 02:09:28;;;;;;;10.45;3.22;;;;;;;;;;5073602;28;20091;-26
2023/12/12 02:11:54;;;;;;;11.70;3.13;;;;;;;;;;5073697;28;20059;-27
2023/12/12 02:14:19;;;;;;;12.65;3.33;;;;;;;;;;5073359;28;20324;-27
2023/12/12 02:16:45;;;;;;;9.40;3.30;;;;;;;;;;5073907;28;20043;-27
2023/12/12 02:19:10;;;;;;;12.70;3.70;;;;;;;;;;5073921;28;20519;-27
2023/12/12 02:21:35;;;;;;;10.65;3.30;;;;;;;;;;5073398;28;20467;-26
2023/12/12 02:24:00;;;;;;;15.20;3.70;;;;;;;;;;5073845;28;20056;-26
2023/12/12 02:26:26;;;;;;;8.65;3.13;;;;;;;;;;5073446;28;20634;-27
2023/12/12 02:28:51;;;;;;;10.00;3.50;;;;;;;;;;5073201;28;20027;-27
2023/12/12 02:31:17;;;;;;;8.30;3.72;;;;;;;;;;5076628;28;20017;-27
2023/12/12 02:33:42;;;;;;;10.93;3.50;;;;;;;;;;5077345;28;20013;-27
2023/12/12 02:36:07;;;;;;;8.47;3.50;;;;;;;;;;5077808;28;20031;-35
2023/12/12 02:38:32;;;;;;;8.98;3.65;;;;;;;;;;5077771;28;20254;-26
2023/12/12 02:40:57;;;;;;;8.10;3.78;;;;;;;;;;5077168;28;20028;-26
2023/12/12 02:43:23;;;;;;;9.57;3.70;;;;;;;;;;5077670;28;20010;-27
2023/12/12 02:45:48;;;;;;;16.75;3.80;;;;;;;;;;5077026;28;20286;-27
2023/12/12 02:48:13;;;;;;;7.30;3.78;;;;;;;;;;5075802;28;20115;-26
2023/12/12 02:50:38;;;;;;;24.05;4.22;;;;;;;;;;5077177;28;20024;-26
2023/12/12 02:53:03;;;;;;;9.03;3.50;;;;;;;;;;5077012;28;20464;-27
2023/12/12 02:55:28;;;;;;;17.10;4.10;;;;;;;;;;5077462;28;20247;-27
2023/12/12 02:57:54;;;;;;;9.93;3.80;;;;;;;;;;5077108;28;20803;-26
2023/12/12 03:00:19;;;;;;;8.67;3.70;;;;;;;;;;5076768;28;20103;-26
2023/12/12 03:02:44;;;;;;;11.77;4.20;;;;;;;;;;5076763;28;20293;-29
2023/12/12 03:05:09;;;;;;;14.02;3.97;;;;;;;;;;5077294;28;20029;-27
2023/12/12 03:07:35;;;;;;;14.05;4.40;;;;;;;;;;5076662;28;20124;-26
2023/12/12 03:10:00;;;;;;;14.53;4.20;;;;;;;;;;5076557;28;20066;-27
2023/12/12 03:12:25;;;;;;;20.70;4.70;;;;;;;;;;5076724;28;20279;-27
2023/12/12 03:14:50;;;;;;;13.77;4.77;;;;;;;;;;5076891;28;20016;-27
2023/12/12 03:17:16;;;;;;;11.95;4.53;;;;;;;;;;5076749;28;20255;-27
2023/12/12 03:19:41;;;;;;;10.48;4.50;;;;;;;;;;5076500;28;20021;-27
2023/12/12 03:22:06;;;;;;;10.88;4.60;;;;;;;;;;5076600;28;20066;-27
2023/12/12 03:24:31;;;;;;;12.32;4.78;;;;;;;;;;5076891;28;20016;-27
2023/12/12 03:26:57;;;;;;;18.23;5.17;;;;;;;;;;5076201;28;20455;-28
2023/12/12 03:29:22;;;;;;;18.67;6.17;;;;;;;;;;5076661;28;20275;-27
2023/12/12 03:31:47;;;;;;;14.10;5.40;;;;;;;;;;5076058;28;20258;-27
2023/12/12 03:34:12;;;;;;;16.03;5.40;;;;;;;;;;5073644;28;20262;-27
2023/12/12 03:36:43;;;;;;;17.00;5.20;;;;;;;;;;5074144;28;20258;-27
2023/12/12 03:39:09;;;;;;;9.63;5.35;;;;;;;;;;5073936;28;20031;-27
2023/12/12 03:41:35;;;;;;;13.60;5.40;;;;;;;;;;5072818;28;20371;-27
2023/12/12 03:44:00;;;;;;;14.25;5.60;;;;;;;;;;5074140;28;20013;-27
2023/12/12 03:46:25;;;;;;;16.27;5.80;;;;;;;;;;5073864;28;20032;-27
2023/12/12 03:48:50;;;;;;;19.42;6.75;;;;;;;;;;5074521;28;20027;-27
2023/12/12 03:51:15;;;;;;;15.52;6.25;;;;;;;;;;5076166;28;20017;-27
2023/12/12 03:53:41;;;;;;;17.40;5.72;;;;;;;;;;5076166;28;20013;-27
2023/12/12 03:56:06;;;;;;;21.17;6.32;;;;;;;;;;5076153;28;20061;-27
2023/12/12 03:58:32;;;;;;;19.52;5.88;;;;;;;;;;5075701;28;20021;-27
2023/12/12 04:00:57;;;;;;;18.63;6.10;;;;;;;;;;5075777;28;20028;-27
2023/12/12 04:03:22;;;;;;;15.87;6.47;;;;;;;;;;5075562;28;20427;-27
2023/12/12 04:05:47;;;;;;;18.27;5.63;;;;;;;;;;5076198;28;20258;-27
2023/12/12 04:08:13;;;;;;;17.05;6.28;;;;;;;;;;5075547;28;20251;-27
2023/12/12 04:10:38;;;;;;;16.25;6.60;;;;;;;;;;5076064;28;20051;-28
2023/12/12 04:13:03;;;;;;;23.10;7.40;;;;;;;;;;5075715;28;20097;-27
2023/12/12 04:15:28;;;;;;;12.15;6.43;;;;;;;;;;5075639;28;20714;-27
2023/12/12 04:17:53;;;;;;;21.80;7.47;;;;;;;;;;5075410;28;20391;-27
2023/12/12 04:20:19;;;;;;;14.10;6.83;;;;;;;;;;5075692;28;20085;-27
2023/12/12 04:22:44;;;;;;;20.57;7.33;;;;;;;;;;5075905;28;20247;-27
2023/12/12 04:25:12;;;;;;;17.65;6.75;;;;;;;;;;5075254;28;20656;-27
2023/12/12 04:27:37;;;;;;;19.80;7.63;;;;;;;;;;5075765;28;20120;-27
2023/12/12 04:30:04;;;;;;;18.93;8.33;;;;;;;;;;5075704;28;20099;-27
2023/12/12 04:32:29;;;;;;;22.02;7.97;;;;;;;;;;5075391;28;20259;-27
2023/12/12 04:34:55;;;;;;;21.80;8.55;;;;;;;;;;5075366;28;20050;-27
2023/12/12 04:37:20;;;;;;;25.02;8.85;;;;;;;;;;5075002;28;20112;-27
2023/12/12 04:39:45;;;;;;;22.33;8.60;;;;;;;;;;5075555;28;20039;-27
2023/12/12 04:42:11;;;;;;;21.50;8.43;;;;;;;;;;5074981;28;20243;-27
2023/12/12 04:44:36;;;;;;;25.67;8.85;;;;;;;;;;5075393;28;20265;-27
2023/12/12 04:47:02;;;;;;;24.30;8.67;;;;;;;;;;5075383;28;20021;-27
2023/12/12 04:49:28;;;;;;;23.50;9.30;;;;;;;;;;5074949;28;20634;-27
2023/12/12 04:51:53;;;;;;;24.00;9.33;;;;;;;;;;5074979;28;20021;-27
2023/12/12 04:54:18;;;;;;;23.42;9.57;;;;;;;;;;5074653;28;20795;-27
2023/12/12 04:56:43;;;;;;;24.47;9.37;;;;;;;;;;5074703;28;20124;-27
2023/12/12 04:59:08;;;;;;;21.77;9.63;;;;;;;;;;5074665;28;20251;-27
2023/12/12 05:01:33;;;;;;;25.25;9.52;;;;;;;;;;5074594;28;20286;-27
2023/12/12 05:04:00;;;;;;;26.87;10.37;;;;;;;;;;5074467;28;20017;-27
2023/12/12 05:06:25;;;;;;;21.25;10.52;;;;;;;;;;5074772;28;20293;-27
2023/12/12 05:08:50;;;;;;;23.25;10.65;;;;;;;;;;5074338;28;20017;-28
2023/12/12 05:11:15;;;;;;;30.07;10.27;;;;;;;;;;5074814;28;20054;-27
2023/12/12 05:13:41;;;;;;;21.33;10.05;;;;;;;;;;5074227;28;20247;-27
2023/12/12 05:16:07;;;;;;;21.05;10.85;;;;;;;;;;5074178;28;20028;-27
2023/12/12 05:18:32;;;;;;;27.05;10.95;;;;;;;;;;5074801;28;20432;-27
2023/12/12 05:20:57;;;;;;;29.13;10.40;;;;;;;;;;5074700;28;20106;-27
2023/12/12 05:23:22;;;;;;;28.57;11.70;;;;;;;;;;5074125;28;20734;-27
2023/12/12 05:25:49;;;;;;;30.58;11.40;;;;;;;;;;5074036;28;20271;-27
2023/12/12 05:28:16;;;;;;;31.10;11.90;;;;;;;;;;5074000;28;20023;-27
2023/12/12 05:30:42;;;;;;;26.25;11.43;;;;;;;;;;5074179;28;20031;-27
2023/12/12 05:33:07;;;;;;;26.47;11.63;;;;;;;;;;5073993;28;20021;-27
2023/12/12 05:35:32;;;;;;;28.50;11.57;;;;;;;;;;5074106;28;20323;-27
2023/12/12 05:37:57;;;;;;;24.77;11.83;;;;;;;;;;5074475;28;20279;-27
2023/12/12 05:40:22;;;;;;;31.95;11.50;;;;;;;;;;5073809;28;20788;-27
2023/12/12 05:42:48;;;;;;;35.70;12.13;;;;;;;;;;5074379;28;20048;-27
2023/12/12 05:45:13;;;;;;;31.83;11.60;;;;;;;;;;5073729;28;20255;-27
2023/12/12 05:47:38;;;;;;;29.35;11.60;;;;;;;;;;5073677;28;20032;-27
2023/12/12 05:50:04;;;;;;;27.90;11.60;;;;;;;;;;5073851;28;20025;-27
2023/12/12 05:52:29;;;;;;;29.70;11.88;;;;;;;;;;5073622;28;20753;-27
2023/12/12 05:54:54;;;;;;;28.20;12.00;;;;;;;;;;5074239;28;20020;-27
2023/12/12 05:57:19;;;;;;;27.88;11.73;;;;;;;;;;5073600;28;20770;-27
2023/12/12 05:59:46;;;;;;;28.05;11.70;;;;;;;;;;5073615;28;20099;-27
2023/12/12 06:02:11;;;;;;;36.60;13.27;;;;;;;;;;5073579;28;20051;-27
2023/12/12 06:04:38;;;;;;;26.73;11.57;;;;;;;;;;5072925;28;20021;-27
2023/12/12 06:07:03;;;;;;;28.67;11.80;;;;;;;;;;5073775;28;20267;-27
2023/12/12 06:09:28;;;;;;;30.25;12.05;;;;;;;;;;5073951;28;20020;-27
2023/12/12 06:11:53;;;;;;;30.55;12.43;;;;;;;;;;5073412;28;20087;-27
2023/12/12 06:14:19;;;;;;;35.50;12.80;;;;;;;;;;5073959;28;20016;-27
2023/12/12 06:16:44;;;;;;;29.00;12.05;;;;;;;;;;5073357;28;20270;-27
2023/12/12 06:19:09;;;;;;;33.75;12.07;;;;;;;;;;5073318;28;20070;-27
2023/12/12 06:21:34;;;;;;;35.65;13.35;;;;;;;;;;5073860;28;20104;-27
2023/12/12 06:24:03;;;;;;;35.70;13.35;;;;;;;;;;5073855;28;20048;-27
2023/12/12 06:26:29;;;;;;;30.08;12.85;;;;;;;;;;5073215;28;20021;-27
2023/12/12 06:28:54;;;;;;;39.38;14.15;;;;;;;;;;5073440;28;20016;-27
2023/12/12 06:31:20;;;;;;;41.37;13.50;;;;;;;;;;5073281;28;20533;-27
2023/12/12 06:33:45;;;;;;;37.17;14.02;;;;;;;;;;5074302;28;20255;-27
2023/12/12 06:36:10;;;;;;;36.17;14.10;;;;;;;;;;5073475;28;20023;-27
2023/12/12 06:38:35;;;;;;;41.55;13.77;;;;;;;;;;5073170;28;20246;-27
2023/12/12 06:41:01;;;;;;;40.30;14.43;;;;;;;;;;5073733;28;20016;-27
2023/12/12 06:43:26;;;;;;;41.78;14.23;;;;;;;;;;5073410;28;20425;-27
2023/12/12 06:45:51;;;;;;;37.70;13.77;;;;;;;;;;5072908;28;20067;-27
2023/12/12 06:48:17;;;;;;;42.30;14.60;;;;;;;;;;5073044;28;20063;-27
2023/12/12 06:50:42;;;;;;;36.45;14.43;;;;;;;;;;5073292;28;20044;-26
2023/12/12 06:53:07;;;;;;;39.43;14.23;;;;;;;;;;5072954;28;20427;-26
2023/12/12 06:55:33;;;;;;;36.93;13.47;;;;;;;;;;5073563;28;20250;-26
2023/12/12 06:57:58;;;;;;;38.20;13.95;;;;;;;;;;5073213;28;20610;-26
2023/12/12 07:00:24;;;;;;;35.65;13.65;;;;;;;;;;5073754;28;20021;-27
2023/12/12 07:02:50;;;;;;;35.88;13.20;;;;;;;;;;5072749;28;20051;-27
2023/12/12 07:05:15;;;;;;;38.75;13.93;;;;;;;;;;5072830;28;20081;-27
2023/12/12 07:07:40;;;;;;;42.72;14.23;;;;;;;;;;5073428;28;20100;-27
2023/12/12 07:10:06;;;;;;;37.05;13.52;;;;;;;;;;5072747;28;20020;-27
2023/12/12 07:12:31;;;;;;;34.42;13.13;;;;;;;;;;5072673;28;20017;-27
2023/12/12 07:14:57;;;;;;;43.38;13.15;;;;;;;;;;5073299;28;20012;-27
2023/12/12 07:17:22;;;;;;;37.33;13.80;;;;;;;;;;5076561;28;20016;-26
2023/12/12 07:19:47;;;;;;;42.93;13.57;;;;;;;;;;5076699;28;20255;-27
2023/12/12 07:22:12;;;;;;;35.72;13.35;;;;;;;;;;5075061;28;20349;-26
2023/12/12 07:24:39;;;;;;;37.15;13.60;;;;;;;;;;5074578;28;20071;-26
2023/12/12 07:27:04;;;;;;;39.00;12.82;;;;;;;;;;5075863;28;20020;-26
2023/12/12 07:29:30;;;;;;;38.88;13.45;;;;;;;;;;5076050;28;20120;-26
2023/12/12 07:31:55;;;;;;;41.45;13.48;;;;;;;;;;5075847;28;20028;-26
2023/12/12 07:34:20;;;;;;;35.93;12.77;;;;;;;;;;5075756;28;20020;-26
2023/12/12 07:36:45;;;;;;;39.50;12.20;;;;;;;;;;5075905;28;20393;-26
2023/12/12 07:39:11;;;;;;;40.38;11.95;;;;;;;;;;5076193;28;20047;-26
2023/12/12 07:41:36;;;;;;;38.60;13.23;;;;;;;;;;5076119;28;20371;-31
2023/12/12 07:44:03;;;;;;;38.03;12.73;;;;;;;;;;5075949;28;20435;-26
2023/12/12 07:46:28;;;;;;;47.42;13.25;;;;;;;;;;5076296;28;20017;-26
2023/12/12 07:48:53;;;;;;;39.10;12.68;;;;;;;;;;5075966;28;20379;-27
2023/12/12 07:51:18;;;;;;;45.33;13.17;;;;;;;;;;5075805;28;20027;-28
2023/12/12 07:53:43;;;;;;;38.08;12.73;;;;;;;;;;5075794;28;20278;-27
2023/12/12 07:56:09;;;;;;;34.03;12.10;;;;;;;;;;5075775;28;20021;-27
2023/12/12 07:58:34;;;;;;;41.85;12.63;;;;;;;;;;5075979;28;20334;-27
2023/12/12 08:00:59;;;;;;;34.93;12.17;;;;;;;;;;5075773;28;20028;-27
2023/12/12 08:03:25;;;;;;;31.20;11.80;;;;;;;;;;5075544;28;20294;-27
2023/12/12 08:05:50;;;;;;;29.60;11.35;;;;;;;;;;5075576;28;20259;-26
2023/12/12 08:08:15;;;;;;;26.23;10.65;;;;;;;;;;5075580;28;20032;-27
2023/12/12 08:10:41;;;;;;;30.35;10.90;;;;;;;;;;5075472;28;20133;-27
2023/12/12 08:13:08;;;;;;;24.75;9.82;;;;;;;;;;5075769;28;20057;-26
2023/12/12 08:15:33;;;;;;;26.60;9.82;;;;;;;;;;5075788;28;20515;-27
2023/12/12 08:17:59;;;;;;;17.75;9.52;;;;;;;;;;5075717;28;20149;-27
2023/12/12 08:20:25;;;;;;;19.27;8.80;;;;;;;;;;5075738;28;20020;-27
2023/12/12 08:22:50;;;;;;;19.25;8.93;;;;;;;;;;5074116;28;20021;-27
2023/12/12 08:25:16;;;;;;;15.13;8.68;;;;;;;;;;5075575;28;20047;-27
2023/12/12 08:27:41;;;;;;;18.57;8.47;;;;;;;;;;5075165;28;20097;-26
2023/12/12 08:30:07;;;;;;;17.70;8.85;;;;;;;;;;5075313;28;20621;-27
2023/12/12 08:32:33;;;;;;;16.42;8.05;;;;;;;;;;5075388;28;20020;-27
2023/12/12 08:34:58;;;;;;;17.33;7.90;;;;;;;;;;5075139;28;20032;-27
2023/12/12 08:37:23;;;;;;;16.80;8.03;;;;;;;;;;5075650;28;20106;-27
2023/12/12 08:39:49;;;;;;;18.65;8.10;;;;;;;;;;5074936;28;20255;-27
2023/12/12 08:42:14;;;;;;;19.70;8.00;;;;;;;;;;5074931;28;20020;-27
2023/12/12 08:44:42;;;;;;;17.38;8.20;;;;;;;;;;5075107;28;20262;-27
2023/12/12 08:47:07;;;;;;;16.92;7.68;;;;;;;;;;5074861;28;20023;-27
2023/12/12 08:49:37;;;;;;;19.50;7.73;;;;;;;;;;5074642;28;20456;-32
2023/12/12 08:52:02;;;;;;;19.42;8.93;;;;;;;;;;5074963;28;20267;-27
2023/12/12 08:54:27;;;;;;;18.80;8.57;;;;;;;;;;5074623;28;20019;-27
2023/12/12 08:56:53;;;;;;;19.07;8.30;;;;;;;;;;5075144;28;20099;-27
2023/12/12 08:59:21;;;;;;;22.05;8.10;;;;;;;;;;5074825;28;20265;-27
2023/12/12 09:01:46;;;;;;;24.65;8.45;;;;;;;;;;5074553;28;20048;-27
2023/12/12 09:04:13;;;;;;;22.87;8.67;;;;;;;;;;5074490;28;20024;-27
2023/12/12 09:06:39;;;;;;;20.98;8.55;;;;;;;;;;5074680;28;20262;-27
2023/12/12 09:09:06;;;;;;;26.00;9.00;;;;;;;;;;5074536;28;20040;-27
2023/12/12 09:11:33;;;;;;;28.42;8.98;;;;;;;;;;5074180;28;20016;-27
2023/12/12 09:13:58;;;;;;;25.13;9.57;;;;;;;;;;5074604;28;20013;-27
2023/12/12 09:16:23;;;;;;;22.67;9.20;;;;;;;;;;5074609;28;20486;-27
2023/12/12 09:18:49;;;;;;;27.47;9.40;;;;;;;;;;5074092;28;20476;-27
2023/12/12 09:21:15;;;;;;;24.83;8.68;;;;;;;;;;5074274;28;20648;-27
2023/12/12 09:23:40;;;;;;;24.77;8.57;;;;;;;;;;5074125;28;20081;-26
2023/12/12 09:26:05;;;;;;;26.02;8.52;;;;;;;;;;5074285;28;20302;-26
2023/12/12 09:28:30;;;;;;;24.33;8.53;;;;;;;;;;5073962;28;20021;-26
2023/12/12 09:30:55;;;;;;;28.63;8.47;;;;;;;;;;5074403;28;20274;-26
2023/12/12 09:33:21;;;;;;;26.83;8.13;;;;;;;;;;5074512;28;20594;-26
2023/12/12 09:35:46;;;;;;;30.10;7.95;;;;;;;;;;5073559;28;20017;-27
2023/12/12 09:38:11;;;;;;;29.25;8.35;;;;;;;;;;5073829;28;20352;-27
2023/12/12 09:40:37;;;;;;;26.70;7.80;;;;;;;;;;5073311;28;20168;-27
2023/12/12 09:43:05;;;;;;;24.67;7.47;;;;;;;;;;5074056;28;20269;-27
2023/12/12 09:45:31;;;;;;;27.10;7.60;;;;;;;;;;5074120;28;20027;-27
2023/12/12 09:47:56;;;;;;;27.23;8.00;;;;;;;;;;5073726;28;20047;-27
2023/12/12 09:50:22;;;;;;;28.43;7.67;;;;;;;;;;5074064;28;20056;-27
2023/12/12 09:52:48;;;;;;;21.98;6.93;;;;;;;;;;5074136;28;20251;-27
2023/12/12 09:55:14;;;;;;;28.35;7.00;;;;;;;;;;5073876;28;20514;-27
2023/12/12 09:57:39;;;;;;;32.22;7.03;;;;;;;;;;5073770;28;20017;-27
2023/12/12 10:00:08;;;;;;;25.67;6.80;;;;;;;;;;5073429;28;20016;-27
2023/12/12 10:02:34;;;;;;;19.40;6.78;;;;;;;;;;5073015;28;20059;-27
2023/12/12 10:05:01;;;;;;;24.23;6.20;;;;;;;;;;5073782;28;20415;-26
2023/12/12 10:07:26;;;;;;;27.48;6.57;;;;;;;;;;5073418;28;20467;-27
2023/12/12 10:09:51;;;;;;;28.45;5.60;;;;;;;;;;5073428;28;20055;-27
2023/12/12 10:12:17;;;;;;;28.80;5.93;;;;;;;;;;5073640;28;20012;-27
2023/12/12 10:14:47;;;;;;;26.42;6.35;;;;;;;;;;5073417;28;20127;-27
2023/12/12 10:17:12;;;;;;;23.60;5.43;;;;;;;;;;5073681;28;20012;-27
2023/12/12 10:19:38;;;;;;;22.05;6.03;;;;;;;;;;5073616;28;20023;-27
2023/12/12 10:22:07;;;;;;;25.90;5.60;;;;;;;;;;5073303;28;20430;-27
2023/12/12 10:24:32;;;;;;;24.00;5.32;;;;;;;;;;5073328;28;20490;-27
2023/12/12 10:26:58;;;;;;;21.58;5.65;;;;;;;;;;5074398;28;20099;-27
2023/12/12 10:29:23;;;;;;;23.40;5.35;;;;;;;;;;5073509;28;20035;-26
2023/12/12 10:31:49;;;;;;;24.88;6.10;;;;;;;;;;5073190;28;20020;-27
2023/12/12 10:34:17;;;;;;;27.60;5.60;;;;;;;;;;5073391;28;20058;-27
2023/12/12 10:36:42;;;;;;;21.27;5.40;;;;;;;;;;5073141;28;20020;-27
2023/12/12 10:39:12;;;;;;;17.75;4.75;;;;;;;;;;5073392;28;20024;-27
2023/12/12 10:41:38;;;;;;;18.75;4.93;;;;;;;;;;5073276;28;20028;-27
2023/12/12 10:44:05;;;;;;;22.13;5.03;;;;;;;;;;5073490;28;20020;-27
2023/12/12 10:46:32;;;;;;;24.75;5.50;;;;;;;;;;5073100;28;20738;-27
2023/12/12 10:48:57;;;;;;;23.52;5.43;;;;;;;;;;5073125;28;20464;-27
2023/12/12 10:51:23;;;;;;;26.55;5.13;;;;;;;;;;5073404;28;20113;-27
2023/12/12 10:53:51;;;;;;;21.73;5.45;;;;;;;;;;5076858;28;20104;-27
2023/12/12 10:56:17;;;;;;;21.73;5.10;;;;;;;;;;5077046;28;20035;-27
2023/12/12 10:58:43;;;;;;;19.90;4.75;;;;;;;;;;5076900;28;20032;-27
2023/12/12 11:01:09;;;;;;;20.80;4.90;;;;;;;;;;5076803;28;20395;-28
2023/12/12 11:03:36;;;;;;;25.60;5.63;;;;;;;;;;5076882;28;20020;-27
2023/12/12 11:06:01;;;;;;;28.17;5.80;;;;;;;;;;5076848;28;20487;-27
2023/12/12 11:08:27;;;;;;;21.55;4.78;;;;;;;;;;5076759;28;20071;-27
2023/12/12 11:10:53;;;;;;;19.33;5.18;;;;;;;;;;5076715;28;20023;-27
2023/12/12 11:13:20;;;;;;;24.02;6.22;;;;;;;;;;5076741;28;20070;-27
2023/12/12 11:15:46;;;;;;;29.77;5.28;;;;;;;;;;5077037;28;20040;-27
2023/12/12 11:18:11;;;;;;;22.77;5.07;;;;;;;;;;5076461;28;20059;-27
2023/12/12 11:20:37;;;;;;;24.67;5.18;;;;;;;;;;5076718;28;20016;-27
2023/12/12 11:23:05;;;;;;;25.70;5.35;;;;;;;;;;5076748;28;20024;-30
2023/12/12 11:25:30;;;;;;;26.60;5.43;;;;;;;;;;5076584;28;20037;-27
2023/12/12 11:27:57;;;;;;;19.98;5.00;;;;;;;;;;5076637;28;20367;-27
2023/12/12 11:30:42;;;;;;;21.10;5.43;;;;;;;;;;5076525;28;20048;-27
2023/12/12 11:33:08;;;;;;;26.85;5.90;;;;;;;;;;5075877;28;20405;-27
2023/12/12 11:35:33;;;;;;;17.65;4.95;;;;;;;;;;5076760;28;20012;-27
2023/12/12 11:37:59;;;;;;;22.02;5.20;;;;;;;;;;5076385;28;20403;-27
2023/12/12 11:40:25;;;;;;;22.23;5.55;;;;;;;;;;5076086;28;20027;-27
2023/12/12 11:42:52;;;;;;;20.40;5.35;;;;;;;;;;5075860;28;20074;-27
2023/12/12 11:45:30;;;;;;;26.10;5.38;;;;;;;;;;5076135;28;20021;-26
2023/12/12 11:47:57;;;;;;;23.98;5.40;;;;;;;;;;5075694;28;20086;-27
2023/12/12 11:50:25;;;;;;;20.90;5.10;;;;;;;;;;5075239;28;20032;-27
2023/12/12 11:52:50;;;;;;;27.27;6.40;;;;;;;;;;5073918;28;20027;-27
2023/12/12 11:55:18;;;;;;;29.95;5.45;;;;;;;;;;5072760;28;20020;-27
2023/12/12 11:57:44;;;;;;;24.98;5.03;;;;;;;;;;5075846;28;20013;-27
2023/12/12 12:00:13;;;;;;;25.92;5.30;;;;;;;;;;5075369;28;20616;-27
2023/12/12 12:02:38;;;;;;;21.30;5.72;;;;;;;;;;5072285;28;20113;-27
2023/12/12 12:05:05;;;;;;;21.50;5.40;;;;;;;;;;5073373;28;20048;-27
2023/12/12 12:07:30;;;;;;;19.55;5.15;;;;;;;;;;5073467;28;20116;-27
2023/12/12 12:09:55;;;;;;;22.57;5.97;;;;;;;;;;5073427;28;20027;-26
2023/12/12 12:12:20;;;;;;;23.07;5.57;;;;;;;;;;5073634;28;20266;-27
2023/12/12 12:14:45;;;;;;;25.90;5.78;;;;;;;;;;5074215;28;20333;-27
2023/12/12 12:17:11;;;;;;;27.37;5.90;;;;;;;;;;5075135;28;20097;-27
2023/12/12 12:19:37;;;;;;;16.77;5.45;;;;;;;;;;5074791;28;20265;-27
2023/12/12 12:22:04;;;;;;;21.90;5.53;;;;;;;;;;5074836;28;20024;-27
2023/12/12 12:24:30;;;;;;;21.65;6.13;;;;;;;;;;5074402;28;20078;-27
2023/12/12 12:26:55;;;;;;;20.75;5.72;;;;;;;;;;5075153;28;20353;-26
2023/12/12 12:29:20;;;;;;;24.67;6.88;;;;;;;;;;5075133;28;20016;-26
2023/12/12 12:31:45;;;;;;;26.45;6.05;;;;;;;;;;5075417;28;20047;-27
2023/12/12 12:34:23;;;;;;;17.73;5.90;;;;;;;;;;5075085;28;20043;-27
2023/12/12 12:36:49;;;;;;;22.73;5.35;;;;;;;;;;5074906;28;20764;-27
2023/12/12 12:39:15;;;;;;;27.30;5.90;;;;;;;;;;5075141;28;20017;-27
2023/12/12 12:41:43;;;;;;;18.33;5.35;;;;;;;;;;5073958;28;20056;-27
2023/12/12 12:44:08;;;;;;;19.10;5.40;;;;;;;;;;5074746;28;20017;-27
2023/12/12 12:46:33;;;;;;;23.10;5.88;;;;;;;;;;5074763;28;20023;-27
2023/12/12 12:48:59;;;;;;;27.93;6.20;;;;;;;;;;5075206;28;20028;-27
2023/12/12 12:51:24;;;;;;;19.93;5.33;;;;;;;;;;5075411;28;20285;-27
2023/12/12 12:53:49;;;;;;;19.33;5.68;;;;;;;;;;5074452;28;20299;-27
2023/12/12 12:56:14;;;;;;;16.23;5.20;;;;;;;;;;5074606;28;20044;-27
2023/12/12 12:58:39;;;;;;;20.27;5.47;;;;;;;;;;5074307;28;20594;-27
2023/12/12 13:01:04;;;;;;;27.53;5.50;;;;;;;;;;5074321;28;20316;-27
2023/12/12 13:03:31;;;;;;;27.77;6.40;;;;;;;;;;5074177;28;20051;-27
2023/12/12 13:05:56;;;;;;;27.23;6.25;;;;;;;;;;5074490;28;20028;-27
2023/12/12 13:08:21;;;;;;;17.00;5.88;;;;;;;;;;5074637;28;20089;-26
2023/12/12 13:10:46;;;;;;;22.90;5.80;;;;;;;;;;5074197;28;20024;-27
2023/12/12 13:13:12;;;;;;;16.50;5.73;;;;;;;;;;5074181;28;20267;-26
2023/12/12 13:15:37;;;;;;;24.10;7.40;;;;;;;;;;5074355;28;20259;-27
2023/12/12 13:18:03;;;;;;;25.93;6.97;;;;;;;;;;5074076;28;20371;-26
2023/12/12 13:20:28;;;;;;;22.10;6.90;;;;;;;;;;5073921;28;20263;-26
2023/12/12 13:22:54;;;;;;;23.13;7.17;;;;;;;;;;5073034;28;20099;-26
2023/12/12 13:25:19;;;;;;;21.83;6.97;;;;;;;;;;5074626;28;20339;-27
2023/12/12 13:27:44;;;;;;;22.17;6.30;;;;;;;;;;5074291;28;20024;-27
2023/12/12 13:30:10;;;;;;;16.73;5.83;;;;;;;;;;5073793;28;20627;-26
2023/12/12 13:32:36;;;;;;;18.95;6.03;;;;;;;;;;5073953;28;20312;-27
2023/12/12 13:35:01;;;;;;;18.75;6.05;;;;;;;;;;5074134;28;20012;-27
2023/12/12 13:37:26;;;;;;;21.33;7.88;;;;;;;;;;5074205;28;20410;-27
2023/12/12 13:39:51;;;;;;;16.23;6.30;;;;;;;;;;5073710;28;20107;-26
2023/12/12 13:42:17;;;;;;;19.40;5.93;;;;;;;;;;5073589;28;20319;-27
2023/12/12 13:44:42;;;;;;;18.53;5.97;;;;;;;;;;5073685;28;20251;-27
2023/12/12 13:47:07;;;;;;;12.93;5.03;;;;;;;;;;5073542;28;20365;-27
2023/12/12 13:49:33;;;;;;;16.57;5.63;;;;;;;;;;5073423;28;20452;-27
2023/12/12 13:51:58;;;;;;;12.13;4.93;;;;;;;;;;5073442;28;20392;-27
2023/12/12 13:54:24;;;;;;;15.27;4.90;;;;;;;;;;5073667;28;20017;-26
2023/12/12 13:56:50;;;;;;;14.30;4.45;;;;;;;;;;5073731;28;20529;-26
2023/12/12 13:59:16;;;;;;;12.52;5.20;;;;;;;;;;5073544;28;20027;-26
2023/12/12 14:01:41;;;;;;;13.95;5.45;;;;;;;;;;5072993;28;20072;-26
2023/12/12 14:04:06;;;;;;;14.33;5.00;;;;;;;;;;5073126;28;20094;-26
2023/12/12 14:06:31;;;;;;;12.87;5.03;;;;;;;;;;5073126;28;20273;-26
2023/12/12 14:08:57;;;;;;;10.95;4.28;;;;;;;;;;5073044;28;20342;-26
2023/12/12 14:11:24;;;;;;;10.93;4.07;;;;;;;;;;5073046;28;20021;-34
2023/12/12 14:13:50;;;;;;;8.00;3.83;;;;;;;;;;5073180;28;20270;-26
2023/12/12 14:16:15;;;;;;;12.75;4.50;;;;;;;;;;5073122;28;20025;-26
2023/12/12 14:18:40;;;;;;;12.37;4.60;;;;;;;;;;5073142;28;20016;-26